CSAV Rio Aysen — D5DX2 — position and weather

sailwx.info

Track history (hours):
 
Tides and Currents Weather Stations Pressure Air Temp Water Temp Dewpoint Dewpoint Depression Visibility Wind Speed Wind Dir Waves Ship Positions

CSAV Rio Aysen

Last reported at 2017-Sep-24 08:30 UTC. Time now 2017-Sep-24 08:34 UTC.
Position N 50°53' W 001°24'.

Length 183 m; draft 9.3 m.

Type: Cargo ship. MMSI: 636015991.

Date/timePositionNaut miles runAvg speedWind from/ knotsBaromVisibWave heightAir tempDewpointWater temp
2017-Sep-24 08:30N 50°53' W 001°24'0 0.0
2017-Sep-24 08:00N 50°53' W 001°24'1 2.9
2017-Sep-24 07:30N 50°52' W 001°22'5 9.3
2017-Sep-24 07:01N 50°48' W 001°17'5 9.4
2017-Sep-24 06:31N 50°46' W 001°11'815.2
2017-Sep-24 06:00N 50°43' W 001°00'5 9.2
2017-Sep-24 05:30N 50°40' W 000°55'4 7.5
2017-Sep-24 05:00N 50°36' W 000°52'5 9.3
2017-Sep-24 04:30N 50°32' W 000°49'3 5.3
2017-Sep-24 04:00N 50°30' W 000°46'4 8.0
2017-Sep-24 03:30N 50°30' W 000°40'510.4
2017-Sep-24 03:00N 50°30' W 000°32'815.2
2017-Sep-24 02:31N 50°30' W 000°20'815.4
2017-Sep-24 02:00N 50°30' W 000°08'815.4
2017-Sep-24 01:30N 50°32' E 000°04'816.1
2017-Sep-24 01:01N 50°34' E 000°16'815.8
2017-Sep-24 00:31N 50°36' E 000°28'815.2
2017-Sep-24 00:01N 50°40' E 000°39'714.8
2017-Sep-23 23:31N 50°44' E 000°48'714.8
2017-Sep-23 23:00N 50°47' E 000°59'714.9
2017-Sep-23 22:30N 50°51' E 001°09'816.2
2017-Sep-23 22:01N 50°56' E 001°19'918.3
2017-Sep-23 21:30N 51°03' E 001°29'1019.7
2017-Sep-23 21:01N 51°10' E 001°40'919.0
2017-Sep-23 20:30N 51°17' E 001°50'918.4
2017-Sep-23 20:01N 51°25' E 001°58'115 2.6
2017-Sep-21 23:43N 52°55' E 003°55'918.5
2017-Sep-21 23:15N 53°01' E 004°06'518.7
2017-Sep-21 22:58N 53°04' E 004°13'918.5
2017-Sep-21 22:30N 53°09' E 004°24'918.3
2017-Sep-21 22:01N 53°18' E 004°30'917.9
2017-Sep-21 21:30N 53°26' E 004°35'1117.4
2017-Sep-21 20:54N 53°36' E 004°40'3117.2
2017-Sep-21 19:05N 54°05' E 004°58'27416.8
2017-Sep-21 02:47N 57°48' E 009°44'517.9
2017-Sep-21 02:30N 57°49' E 009°53'917.5
2017-Sep-21 01:59N 57°50' E 010°10'918.1
2017-Sep-21 01:31N 57°50' E 010°26'1018.2
2017-Sep-21 00:59N 57°49' E 010°44'918.4
2017-Sep-21 00:30N 57°45' E 010°59'918.6
2017-Sep-21 00:00N 57°41' E 011°14'918.0
2017-Sep-20 23:31N 57°37' E 011°29'611.0
2017-Sep-20 23:00N 57°37' E 011°39'510.4
2017-Sep-20 22:31N 57°40' E 011°47'3 6.1
2017-Sep-20 21:59N 57°41' E 011°52'0 0.0
2017-Sep-20 21:29N 57°41' E 011°52'0 0.0
2017-Sep-20 20:59N 57°41' E 011°52'0 0.0
2017-Sep-20 20:29N 57°41' E 011°52'0 0.0
2017-Sep-20 19:59N 57°41' E 011°52'0 0.0
2017-Sep-20 19:29N 57°41' E 011°52'0 0.0
2017-Sep-20 18:59N 57°41' E 011°52'0 0.0
2017-Sep-20 18:29N 57°41' E 011°52'0 0.0
2017-Sep-20 17:59N 57°41' E 011°52'0 0.0
2017-Sep-20 17:29N 57°41' E 011°52'0 0.0
2017-Sep-20 16:59N 57°41' E 011°52'0 0.0
2017-Sep-20 16:30N 57°41' E 011°52'0 0.0
2017-Sep-20 16:00N 57°41' E 011°52'0 0.0
2017-Sep-20 15:30N 57°41' E 011°52'0 0.0
2017-Sep-20 15:00N 57°41' E 011°52'0 0.0
2017-Sep-20 14:00N 57°41' E 011°52'0 0.0
2017-Sep-20 13:30N 57°41' E 011°52'0 0.0
2017-Sep-20 13:00N 57°41' E 011°52'0 0.0
2017-Sep-20 12:30N 57°41' E 011°52'0 0.0
2017-Sep-20 12:00N 57°41' E 011°52'0 0.0
2017-Sep-20 11:30N 57°41' E 011°52'0 0.0
2017-Sep-20 11:00N 57°41' E 011°52'0 0.0
2017-Sep-20 10:30N 57°41' E 011°52'0 0.0
2017-Sep-20 10:00N 57°41' E 011°52'0 0.0
2017-Sep-20 09:30N 57°41' E 011°52'0 0.0
2017-Sep-20 09:00N 57°41' E 011°52'0 0.0
2017-Sep-20 08:30N 57°41' E 011°52'0 0.0
2017-Sep-20 08:00N 57°41' E 011°52'0 0.0
2017-Sep-20 07:30N 57°41' E 011°52'0 0.0
2017-Sep-20 07:00N 57°41' E 011°52'0 0.0
2017-Sep-20 06:30N 57°41' E 011°52'0 0.0
2017-Sep-20 06:00N 57°41' E 011°52'0 0.0
2017-Sep-20 05:30N 57°41' E 011°52'0 0.0
2017-Sep-20 05:00N 57°41' E 011°52'0 0.0
2017-Sep-20 04:27N 57°41' E 011°52'0 0.0
2017-Sep-20 04:00N 57°41' E 011°52'0 0.0
2017-Sep-20 03:30N 57°41' E 011°52'0 0.0
2017-Sep-20 03:00N 57°41' E 011°52'1 2.2
2017-Sep-20 02:30N 57°41' E 011°50'611.8
2017-Sep-20 02:01N 57°38' E 011°41'510.2
2017-Sep-20 01:31N 57°37' E 011°32'2 4.7
2017-Sep-20 01:00N 57°37' E 011°27'2 3.9
2017-Sep-20 00:31N 57°37' E 011°24'3 6.0
2017-Sep-20 00:00N 57°37' E 011°18'510.0
2017-Sep-19 23:31N 57°41' E 011°11'611.0
2017-Sep-19 23:01N 57°45' E 011°06'611.4
2017-Sep-19 22:30N 57°50' E 010°58'611.3
2017-Sep-19 22:00N 57°54' E 010°51'611.2
2017-Sep-19 21:29N 57°57' E 010°43'611.9
2017-Sep-19 21:00N 57°57' E 010°32'611.9
2017-Sep-19 20:31N 57°57' E 010°21'18212.0
2017-Sep-19 05:25N 55°40' E 006°45'713.6
2017-Sep-19 04:55N 55°33' E 006°45'613.5
2017-Sep-19 04:30N 55°27' E 006°44'714.0
2017-Sep-19 04:00N 55°20' E 006°43'714.2
2017-Sep-19 03:30N 55°13' E 006°43'714.3
2017-Sep-19 03:00N 55°06' E 006°46'714.7
2017-Sep-19 02:30N 54°59' E 006°51'714.9
2017-Sep-19 02:00N 54°53' E 006°56'1414.9
2017-Sep-19 01:04N 54°40' E 007°07'4515.0
2017-Sep-18 22:03N 53°59' E 007°40'214.4
2017-Sep-18 21:55N 53°58' E 007°42'712.6
2017-Sep-18 21:20N 53°52' E 007°51'411.0
2017-Sep-18 21:00N 53°52' E 007°57'815.1
2017-Sep-18 20:30N 53°48' E 008°08'714.8
2017-Sep-18 20:00N 53°43' E 008°17'714.3
2017-Sep-18 19:30N 53°38' E 008°26'510.4
2017-Sep-18 19:00N 53°35' E 008°32'1 1.4
2017-Sep-18 18:30N 53°34' E 008°33'0 0.9
2017-Sep-18 17:59N 53°35' E 008°33'0 0.0
2017-Sep-18 17:29N 53°35' E 008°33'0 0.0
2017-Sep-18 16:59N 53°35' E 008°33'0 0.0
2017-Sep-18 16:29N 53°35' E 008°33'0 0.0
2017-Sep-18 15:59N 53°35' E 008°33'0 0.0
2017-Sep-18 15:29N 53°35' E 008°33'0 0.0
2017-Sep-18 14:59N 53°35' E 008°33'0 0.0
2017-Sep-18 14:29N 53°35' E 008°33'0 0.0
2017-Sep-18 13:59N 53°35' E 008°33'0 0.0
2017-Sep-18 13:29N 53°35' E 008°33'0 0.0
2017-Sep-18 12:59N 53°35' E 008°33'0 0.0
2017-Sep-18 12:29N 53°35' E 008°33'0 0.0
2017-Sep-18 11:59N 53°35' E 008°33'0 0.0
2017-Sep-18 11:29N 53°35' E 008°33'0 0.0
2017-Sep-18 10:59N 53°35' E 008°33'0 0.0
2017-Sep-18 10:29N 53°35' E 008°33'0 0.0
2017-Sep-18 09:59N 53°35' E 008°33'0 0.0
2017-Sep-18 09:29N 53°35' E 008°33'0 0.0
2017-Sep-18 08:59N 53°35' E 008°33'0 0.0
2017-Sep-18 08:29N 53°35' E 008°33'0 0.0
2017-Sep-18 07:59N 53°35' E 008°33'0 0.0
2017-Sep-18 07:29N 53°35' E 008°33'0 0.0
2017-Sep-18 06:59N 53°35' E 008°33'0 0.0
2017-Sep-18 06:29N 53°35' E 008°33'0 0.0
2017-Sep-18 05:59N 53°35' E 008°33'0 0.0
2017-Sep-18 05:29N 53°35' E 008°33'0 0.0
2017-Sep-18 04:59N 53°35' E 008°33'0 0.0
2017-Sep-18 04:29N 53°35' E 008°33'0 0.0
2017-Sep-18 03:59N 53°35' E 008°33'0 0.0
2017-Sep-18 03:29N 53°35' E 008°33'0 0.0
2017-Sep-18 02:59N 53°35' E 008°33'0 0.0
2017-Sep-18 02:29N 53°35' E 008°33'0 0.0
2017-Sep-18 01:59N 53°35' E 008°33'0 0.0
2017-Sep-18 01:29N 53°35' E 008°33'0 0.0
2017-Sep-18 00:59N 53°35' E 008°33'0 0.0
2017-Sep-18 00:29N 53°35' E 008°33'0 0.0
2017-Sep-17 23:59N 53°35' E 008°33'0 0.0
2017-Sep-17 23:29N 53°35' E 008°33'0 0.0
2017-Sep-17 22:59N 53°35' E 008°33'0 0.0
2017-Sep-17 22:29N 53°35' E 008°33'0 0.0
2017-Sep-17 21:59N 53°35' E 008°33'0 0.0
2017-Sep-17 21:29N 53°35' E 008°33'0 0.0
2017-Sep-17 20:59N 53°35' E 008°33'0 1.0
2017-Sep-17 20:31N 53°34' E 008°33'0 0.7
2017-Sep-17 20:00N 53°34' E 008°33'1 1.9
2017-Sep-17 19:31N 53°35' E 008°32'5 9.9
2017-Sep-17 19:01N 53°38' E 008°26'611.2
2017-Sep-17 18:30N 53°42' E 008°19'612.4
2017-Sep-17 18:00N 53°46' E 008°11'612.9
2017-Sep-17 17:30N 53°50' E 008°03'612.6
2017-Sep-17 17:00N 53°52' E 007°53'4 8.8
2017-Sep-17 16:30N 53°53' E 007°46'18 2.2
2017-Sep-17 08:39N 54°04' E 007°22'1 1.9
2017-Sep-17 08:20N 54°04' E 007°21'1 1.2
2017-Sep-17 07:12N 54°03' E 007°19'1 3.5
2017-Sep-17 06:54N 54°02' E 007°19'3 8.0
2017-Sep-17 06:30N 53°59' E 007°21'5 9.5
2017-Sep-17 06:00N 53°54' E 007°23'6311.0
2017-Sep-17 00:18N 53°38' E 005°41'3 9.7
2017-Sep-16 23:57N 53°37' E 005°36'4 9.8
2017-Sep-16 23:30N 53°36' E 005°29'5 9.6
2017-Sep-16 23:00N 53°34' E 005°21'5 9.4
2017-Sep-16 22:30N 53°32' E 005°14'5 9.2
2017-Sep-16 22:00N 53°31' E 005°07'5 9.1
2017-Sep-16 21:30N 53°29' E 004°59'5 9.2
2017-Sep-16 21:00N 53°27' E 004°52'5 9.1
2017-Sep-16 20:30N 53°25' E 004°46'5 8.9
2017-Sep-16 20:00N 53°21' E 004°41'5 9.1
2017-Sep-16 19:30N 53°17' E 004°38'5 9.2
2017-Sep-16 19:00N 53°13' E 004°34'5 9.5
2017-Sep-16 18:30N 53°09' E 004°30'5 9.4
2017-Sep-16 18:00N 53°05' E 004°26'5 9.4
2017-Sep-16 17:30N 53°01' E 004°22'5 9.4
2017-Sep-16 17:00N 52°57' E 004°19'5 9.5
2017-Sep-16 16:30N 52°53' E 004°15'5 9.6
2017-Sep-16 16:00N 52°49' E 004°11'5 9.9
2017-Sep-16 15:29N 52°44' E 004°06'610.3
2017-Sep-16 14:57N 52°40' E 004°00'510.3
2017-Sep-16 14:30N 52°36' E 003°55'610.6
2017-Sep-16 13:56N 52°33' E 003°47'6211.0
2017-Sep-16 08:17N 51°47' E 002°39'310.4
2017-Sep-16 08:00N 51°44' E 002°36'610.2
2017-Sep-16 07:27N 51°40' E 002°30'4 9.9
2017-Sep-16 07:00N 51°37' E 002°26'5 9.6
2017-Sep-16 06:30N 51°33' E 002°20'5 9.3
2017-Sep-16 06:00N 51°30' E 002°15'4 8.9
2017-Sep-16 05:30N 51°27' E 002°10'4 8.5
2017-Sep-16 05:00N 51°23' E 002°08'4 8.8
2017-Sep-16 04:30N 51°18' E 002°08'4 8.6
2017-Sep-16 04:00N 51°15' E 002°05'4 8.4
2017-Sep-16 03:30N 51°12' E 002°00'4 8.7
2017-Sep-16 03:00N 51°10' E 001°54'4 8.9
2017-Sep-16 02:30N 51°08' E 001°48'4 8.9
2017-Sep-16 02:00N 51°04' E 001°43'4 8.9
2017-Sep-16 01:30N 51°01' E 001°38'4 8.5
2017-Sep-16 01:00N 50°58' E 001°33'5 9.6
2017-Sep-16 00:30N 50°55' E 001°28'510.0
2017-Sep-16 00:00N 50°50' E 001°25'510.6
2017-Sep-15 23:29N 50°45' E 001°23'2810.4
2017-Sep-15 20:45N 50°27' E 000°48'1511.3
2017-Sep-15 19:27N 50°23' E 000°25'511.7
2017-Sep-15 19:00N 50°22' E 000°17'611.9
2017-Sep-15 18:30N 50°21' E 000°08'612.2
2017-Sep-15 18:00N 50°19' W 000°01'612.6
2017-Sep-15 17:30N 50°18' W 000°11'612.9
2017-Sep-15 17:00N 50°16' W 000°20'1613.4
2017-Sep-15 15:50N 50°12' W 000°44'514.1
2017-Sep-15 15:30N 50°10' W 000°51'714.0
2017-Sep-15 15:01N 50°09' W 001°01'714.0
2017-Sep-15 14:31N 50°07' W 001°12'713.7
2017-Sep-15 14:00N 50°05' W 001°22'713.4
2017-Sep-15 13:30N 50°03' W 001°32'612.8
2017-Sep-15 13:00N 50°02' W 001°42'612.5
2017-Sep-15 12:30N 49°60' W 001°51'611.9
2017-Sep-15 12:00N 49°59' W 002°00'611.5
2017-Sep-15 11:30N 49°57' W 002°09'1710.9
2017-Sep-15 09:58N 49°52' W 002°34'610.8
2017-Sep-15 09:24N 49°51' W 002°43'410.7
2017-Sep-15 09:01N 49°49' W 002°49'510.7
2017-Sep-15 08:30N 49°47' W 002°57'610.8
2017-Sep-15 07:59N 49°44' W 003°05'510.9
2017-Sep-15 07:30N 49°42' W 003°12'611.2
2017-Sep-15 07:01N 49°39' W 003°19'611.1
2017-Sep-15 06:31N 49°36' W 003°27'611.2
2017-Sep-15 06:01N 49°33' W 003°34'711.2
2017-Sep-15 05:23N 49°30' W 003°43'711.4
2017-Sep-15 04:47N 49°27' W 003°52'411.3
2017-Sep-15 04:29N 49°25' W 003°57'4611.8
2017-Sep-15 00:36N 49°01' W 004°57'112.2
2017-Sep-15 00:30N 49°01' W 004°58'612.2
2017-Sep-15 00:00N 48°58' W 005°07'612.1
2017-Sep-14 23:30N 48°55' W 005°14'612.2
2017-Sep-14 23:00N 48°52' W 005°23'612.2
2017-Sep-14 22:30N 48°49' W 005°31'611.9
2017-Sep-14 22:00N 48°45' W 005°38'  
Track history (hours):
 
Tides and Currents Weather Stations Pressure Air Temp Water Temp Dewpoint Dewpoint Depression Visibility Wind Speed Wind Dir Waves Ship Positions

CSAV Rio Aysen

Last reported at 2017-Sep-24 08:30 UTC. Time now 2017-Sep-24 08:34 UTC.
Position N 50°53' W 001°24'.

Length 183 m; draft 9.3 m.

Type: Cargo ship. MMSI: 636015991.

Date/timePositionNaut miles runAvg speedWind from/ knotsBaromVisibWave heightAir tempDewpointWater temp
2017-Sep-24 08:30N 50°53' W 001°24'0 0.0
2017-Sep-24 08:00N 50°53' W 001°24'1 2.9
2017-Sep-24 07:30N 50°52' W 001°22'5 9.3
2017-Sep-24 07:01N 50°48' W 001°17'5 9.4
2017-Sep-24 06:31N 50°46' W 001°11'815.2
2017-Sep-24 06:00N 50°43' W 001°00'5 9.2
2017-Sep-24 05:30N 50°40' W 000°55'4 7.5
2017-Sep-24 05:00N 50°36' W 000°52'5 9.3
2017-Sep-24 04:30N 50°32' W 000°49'3 5.3
2017-Sep-24 04:00N 50°30' W 000°46'4 8.0
2017-Sep-24 03:30N 50°30' W 000°40'510.4
2017-Sep-24 03:00N 50°30' W 000°32'815.2
2017-Sep-24 02:31N 50°30' W 000°20'815.4
2017-Sep-24 02:00N 50°30' W 000°08'815.4
2017-Sep-24 01:30N 50°32' E 000°04'816.1
2017-Sep-24 01:01N 50°34' E 000°16'815.8
2017-Sep-24 00:31N 50°36' E 000°28'815.2
2017-Sep-24 00:01N 50°40' E 000°39'714.8
2017-Sep-23 23:31N 50°44' E 000°48'714.8
2017-Sep-23 23:00N 50°47' E 000°59'714.9
2017-Sep-23 22:30N 50°51' E 001°09'816.2
2017-Sep-23 22:01N 50°56' E 001°19'918.3
2017-Sep-23 21:30N 51°03' E 001°29'1019.7
2017-Sep-23 21:01N 51°10' E 001°40'919.0
2017-Sep-23 20:30N 51°17' E 001°50'918.4
2017-Sep-23 20:01N 51°25' E 001°58'115 2.6
2017-Sep-21 23:43N 52°55' E 003°55'918.5
2017-Sep-21 23:15N 53°01' E 004°06'518.7
2017-Sep-21 22:58N 53°04' E 004°13'918.5
2017-Sep-21 22:30N 53°09' E 004°24'918.3
2017-Sep-21 22:01N 53°18' E 004°30'917.9
2017-Sep-21 21:30N 53°26' E 004°35'1117.4
2017-Sep-21 20:54N 53°36' E 004°40'3117.2
2017-Sep-21 19:05N 54°05' E 004°58'27416.8
2017-Sep-21 02:47N 57°48' E 009°44'517.9
2017-Sep-21 02:30N 57°49' E 009°53'917.5
2017-Sep-21 01:59N 57°50' E 010°10'918.1
2017-Sep-21 01:31N 57°50' E 010°26'1018.2
2017-Sep-21 00:59N 57°49' E 010°44'918.4
2017-Sep-21 00:30N 57°45' E 010°59'918.6
2017-Sep-21 00:00N 57°41' E 011°14'918.0
2017-Sep-20 23:31N 57°37' E 011°29'611.0
2017-Sep-20 23:00N 57°37' E 011°39'510.4
2017-Sep-20 22:31N 57°40' E 011°47'3 6.1
2017-Sep-20 21:59N 57°41' E 011°52'0 0.0
2017-Sep-20 21:29N 57°41' E 011°52'0 0.0
2017-Sep-20 20:59N 57°41' E 011°52'0 0.0
2017-Sep-20 20:29N 57°41' E 011°52'0 0.0
2017-Sep-20 19:59N 57°41' E 011°52'0 0.0
2017-Sep-20 19:29N 57°41' E 011°52'0 0.0
2017-Sep-20 18:59N 57°41' E 011°52'0 0.0
2017-Sep-20 18:29N 57°41' E 011°52'0 0.0
2017-Sep-20 17:59N 57°41' E 011°52'0 0.0
2017-Sep-20 17:29N 57°41' E 011°52'0 0.0
2017-Sep-20 16:59N 57°41' E 011°52'0 0.0
2017-Sep-20 16:30N 57°41' E 011°52'0 0.0
2017-Sep-20 16:00N 57°41' E 011°52'0 0.0
2017-Sep-20 15:30N 57°41' E 011°52'0 0.0
2017-Sep-20 15:00N 57°41' E 011°52'0 0.0
2017-Sep-20 14:00N 57°41' E 011°52'0 0.0
2017-Sep-20 13:30N 57°41' E 011°52'0 0.0
2017-Sep-20 13:00N 57°41' E 011°52'0 0.0
2017-Sep-20 12:30N 57°41' E 011°52'0 0.0
2017-Sep-20 12:00N 57°41' E 011°52'0 0.0
2017-Sep-20 11:30N 57°41' E 011°52'0 0.0
2017-Sep-20 11:00N 57°41' E 011°52'0 0.0
2017-Sep-20 10:30N 57°41' E 011°52'0 0.0
2017-Sep-20 10:00N 57°41' E 011°52'0 0.0
2017-Sep-20 09:30N 57°41' E 011°52'0 0.0
2017-Sep-20 09:00N 57°41' E 011°52'0 0.0
2017-Sep-20 08:30N 57°41' E 011°52'0 0.0
2017-Sep-20 08:00N 57°41' E 011°52'0 0.0
2017-Sep-20 07:30N 57°41' E 011°52'0 0.0
2017-Sep-20 07:00N 57°41' E 011°52'0 0.0
2017-Sep-20 06:30N 57°41' E 011°52'0 0.0
2017-Sep-20 06:00N 57°41' E 011°52'0 0.0
2017-Sep-20 05:30N 57°41' E 011°52'0 0.0
2017-Sep-20 05:00N 57°41' E 011°52'0 0.0
2017-Sep-20 04:27N 57°41' E 011°52'0 0.0
2017-Sep-20 04:00N 57°41' E 011°52'0 0.0
2017-Sep-20 03:30N 57°41' E 011°52'0 0.0
2017-Sep-20 03:00N 57°41' E 011°52'1 2.2
2017-Sep-20 02:30N 57°41' E 011°50'611.8
2017-Sep-20 02:01N 57°38' E 011°41'510.2
2017-Sep-20 01:31N 57°37' E 011°32'2 4.7
2017-Sep-20 01:00N 57°37' E 011°27'2 3.9
2017-Sep-20 00:31N 57°37' E 011°24'3 6.0
2017-Sep-20 00:00N 57°37' E 011°18'510.0
2017-Sep-19 23:31N 57°41' E 011°11'611.0
2017-Sep-19 23:01N 57°45' E 011°06'611.4
2017-Sep-19 22:30N 57°50' E 010°58'611.3
2017-Sep-19 22:00N 57°54' E 010°51'611.2
2017-Sep-19 21:29N 57°57' E 010°43'611.9
2017-Sep-19 21:00N 57°57' E 010°32'611.9
2017-Sep-19 20:31N 57°57' E 010°21'18212.0
2017-Sep-19 05:25N 55°40' E 006°45'713.6
2017-Sep-19 04:55N 55°33' E 006°45'613.5
2017-Sep-19 04:30N 55°27' E 006°44'714.0
2017-Sep-19 04:00N 55°20' E 006°43'714.2
2017-Sep-19 03:30N 55°13' E 006°43'714.3
2017-Sep-19 03:00N 55°06' E 006°46'714.7
2017-Sep-19 02:30N 54°59' E 006°51'714.9
2017-Sep-19 02:00N 54°53' E 006°56'1414.9
2017-Sep-19 01:04N 54°40' E 007°07'4515.0
2017-Sep-18 22:03N 53°59' E 007°40'214.4
2017-Sep-18 21:55N 53°58' E 007°42'712.6
2017-Sep-18 21:20N 53°52' E 007°51'411.0
2017-Sep-18 21:00N 53°52' E 007°57'815.1
2017-Sep-18 20:30N 53°48' E 008°08'714.8
2017-Sep-18 20:00N 53°43' E 008°17'714.3
2017-Sep-18 19:30N 53°38' E 008°26'510.4
2017-Sep-18 19:00N 53°35' E 008°32'1 1.4
2017-Sep-18 18:30N 53°34' E 008°33'0 0.9
2017-Sep-18 17:59N 53°35' E 008°33'0 0.0
2017-Sep-18 17:29N 53°35' E 008°33'0 0.0
2017-Sep-18 16:59N 53°35' E 008°33'0 0.0
2017-Sep-18 16:29N 53°35' E 008°33'0 0.0
2017-Sep-18 15:59N 53°35' E 008°33'0 0.0
2017-Sep-18 15:29N 53°35' E 008°33'0 0.0
2017-Sep-18 14:59N 53°35' E 008°33'0 0.0
2017-Sep-18 14:29N 53°35' E 008°33'0 0.0
2017-Sep-18 13:59N 53°35' E 008°33'0 0.0
2017-Sep-18 13:29N 53°35' E 008°33'0 0.0
2017-Sep-18 12:59N 53°35' E 008°33'0 0.0
2017-Sep-18 12:29N 53°35' E 008°33'0 0.0
2017-Sep-18 11:59N 53°35' E 008°33'0 0.0
2017-Sep-18 11:29N 53°35' E 008°33'0 0.0
2017-Sep-18 10:59N 53°35' E 008°33'0 0.0
2017-Sep-18 10:29N 53°35' E 008°33'0 0.0
2017-Sep-18 09:59N 53°35' E 008°33'0 0.0
2017-Sep-18 09:29N 53°35' E 008°33'0 0.0
2017-Sep-18 08:59N 53°35' E 008°33'0 0.0
2017-Sep-18 08:29N 53°35' E 008°33'0 0.0
2017-Sep-18 07:59N 53°35' E 008°33'0 0.0
2017-Sep-18 07:29N 53°35' E 008°33'0 0.0
2017-Sep-18 06:59N 53°35' E 008°33'0 0.0
2017-Sep-18 06:29N 53°35' E 008°33'0 0.0
2017-Sep-18 05:59N 53°35' E 008°33'0 0.0
2017-Sep-18 05:29N 53°35' E 008°33'0 0.0
2017-Sep-18 04:59N 53°35' E 008°33'0 0.0
2017-Sep-18 04:29N 53°35' E 008°33'0 0.0
2017-Sep-18 03:59N 53°35' E 008°33'0 0.0
2017-Sep-18 03:29N 53°35' E 008°33'0 0.0
2017-Sep-18 02:59N 53°35' E 008°33'0 0.0
2017-Sep-18 02:29N 53°35' E 008°33'0 0.0
2017-Sep-18 01:59N 53°35' E 008°33'0 0.0
2017-Sep-18 01:29N 53°35' E 008°33'0 0.0
2017-Sep-18 00:59N 53°35' E 008°33'0 0.0
2017-Sep-18 00:29N 53°35' E 008°33'0 0.0
2017-Sep-17 23:59N 53°35' E 008°33'0 0.0
2017-Sep-17 23:29N 53°35' E 008°33'0 0.0
2017-Sep-17 22:59N 53°35' E 008°33'0 0.0
2017-Sep-17 22:29N 53°35' E 008°33'0 0.0
2017-Sep-17 21:59N 53°35' E 008°33'0 0.0
2017-Sep-17 21:29N 53°35' E 008°33'0 0.0
2017-Sep-17 20:59N 53°35' E 008°33'0 1.0
2017-Sep-17 20:31N 53°34' E 008°33'0 0.7
2017-Sep-17 20:00N 53°34' E 008°33'1 1.9
2017-Sep-17 19:31N 53°35' E 008°32'5 9.9
2017-Sep-17 19:01N 53°38' E 008°26'611.2
2017-Sep-17 18:30N 53°42' E 008°19'612.4
2017-Sep-17 18:00N 53°46' E 008°11'612.9
2017-Sep-17 17:30N 53°50' E 008°03'612.6
2017-Sep-17 17:00N 53°52' E 007°53'4 8.8
2017-Sep-17 16:30N 53°53' E 007°46'18 2.2
2017-Sep-17 08:39N 54°04' E 007°22'1 1.9
2017-Sep-17 08:20N 54°04' E 007°21'1 1.2
2017-Sep-17 07:12N 54°03' E 007°19'1 3.5
2017-Sep-17 06:54N 54°02' E 007°19'3 8.0
2017-Sep-17 06:30N 53°59' E 007°21'5 9.5
2017-Sep-17 06:00N 53°54' E 007°23'6311.0
2017-Sep-17 00:18N 53°38' E 005°41'3 9.7
2017-Sep-16 23:57N 53°37' E 005°36'4 9.8
2017-Sep-16 23:30N 53°36' E 005°29'5 9.6
2017-Sep-16 23:00N 53°34' E 005°21'5 9.4
2017-Sep-16 22:30N 53°32' E 005°14'5 9.2
2017-Sep-16 22:00N 53°31' E 005°07'5 9.1
2017-Sep-16 21:30N 53°29' E 004°59'5 9.2
2017-Sep-16 21:00N 53°27' E 004°52'5 9.1
2017-Sep-16 20:30N 53°25' E 004°46'5 8.9
2017-Sep-16 20:00N 53°21' E 004°41'5 9.1
2017-Sep-16 19:30N 53°17' E 004°38'5 9.2
2017-Sep-16 19:00N 53°13' E 004°34'5 9.5
2017-Sep-16 18:30N 53°09' E 004°30'5 9.4
2017-Sep-16 18:00N 53°05' E 004°26'5 9.4
2017-Sep-16 17:30N 53°01' E 004°22'5 9.4
2017-Sep-16 17:00N 52°57' E 004°19'5 9.5
2017-Sep-16 16:30N 52°53' E 004°15'5 9.6
2017-Sep-16 16:00N 52°49' E 004°11'5 9.9
2017-Sep-16 15:29N 52°44' E 004°06'610.3
2017-Sep-16 14:57N 52°40' E 004°00'510.3
2017-Sep-16 14:30N 52°36' E 003°55'610.6
2017-Sep-16 13:56N 52°33' E 003°47'6211.0
2017-Sep-16 08:17N 51°47' E 002°39'310.4
2017-Sep-16 08:00N 51°44' E 002°36'610.2
2017-Sep-16 07:27N 51°40' E 002°30'4 9.9
2017-Sep-16 07:00N 51°37' E 002°26'5 9.6
2017-Sep-16 06:30N 51°33' E 002°20'5 9.3
2017-Sep-16 06:00N 51°30' E 002°15'4 8.9
2017-Sep-16 05:30N 51°27' E 002°10'4 8.5
2017-Sep-16 05:00N 51°23' E 002°08'4 8.8
2017-Sep-16 04:30N 51°18' E 002°08'4 8.6
2017-Sep-16 04:00N 51°15' E 002°05'4 8.4
2017-Sep-16 03:30N 51°12' E 002°00'4 8.7
2017-Sep-16 03:00N 51°10' E 001°54'4 8.9
2017-Sep-16 02:30N 51°08' E 001°48'4 8.9
2017-Sep-16 02:00N 51°04' E 001°43'4 8.9
2017-Sep-16 01:30N 51°01' E 001°38'4 8.5
2017-Sep-16 01:00N 50°58' E 001°33'5 9.6
2017-Sep-16 00:30N 50°55' E 001°28'510.0
2017-Sep-16 00:00N 50°50' E 001°25'510.6
2017-Sep-15 23:29N 50°45' E 001°23'2810.4
2017-Sep-15 20:45N 50°27' E 000°48'1511.3
2017-Sep-15 19:27N 50°23' E 000°25'511.7
2017-Sep-15 19:00N 50°22' E 000°17'611.9
2017-Sep-15 18:30N 50°21' E 000°08'612.2
2017-Sep-15 18:00N 50°19' W 000°01'612.6
2017-Sep-15 17:30N 50°18' W 000°11'612.9
2017-Sep-15 17:00N 50°16' W 000°20'1613.4
2017-Sep-15 15:50N 50°12' W 000°44'514.1
2017-Sep-15 15:30N 50°10' W 000°51'714.0
2017-Sep-15 15:01N 50°09' W 001°01'714.0
2017-Sep-15 14:31N 50°07' W 001°12'713.7
2017-Sep-15 14:00N 50°05' W 001°22'713.4
2017-Sep-15 13:30N 50°03' W 001°32'612.8
2017-Sep-15 13:00N 50°02' W 001°42'612.5
2017-Sep-15 12:30N 49°60' W 001°51'611.9
2017-Sep-15 12:00N 49°59' W 002°00'611.5
2017-Sep-15 11:30N 49°57' W 002°09'1710.9
2017-Sep-15 09:58N 49°52' W 002°34'610.8
2017-Sep-15 09:24N 49°51' W 002°43'410.7
2017-Sep-15 09:01N 49°49' W 002°49'510.7
2017-Sep-15 08:30N 49°47' W 002°57'610.8
2017-Sep-15 07:59N 49°44' W 003°05'510.9
2017-Sep-15 07:30N 49°42' W 003°12'611.2
2017-Sep-15 07:01N 49°39' W 003°19'611.1
2017-Sep-15 06:31N 49°36' W 003°27'611.2
2017-Sep-15 06:01N 49°33' W 003°34'711.2
2017-Sep-15 05:23N 49°30' W 003°43'711.4
2017-Sep-15 04:47N 49°27' W 003°52'411.3
2017-Sep-15 04:29N 49°25' W 003°57'4611.8
2017-Sep-15 00:36N 49°01' W 004°57'112.2
2017-Sep-15 00:30N 49°01' W 004°58'612.2
2017-Sep-15 00:00N 48°58' W 005°07'612.1
2017-Sep-14 23:30N 48°55' W 005°14'612.2
2017-Sep-14 23:00N 48°52' W 005°23'612.2
2017-Sep-14 22:30N 48°49' W 005°31'611.9
2017-Sep-14 22:00N 48°45' W 005°38'  

Dump ship's entire track history